sensor_id;sensor_type;location;lat;lon;timestamp;P1;durP1;ratioP1;P2;durP2;ratioP2
6651;SDS011;3362;50.892;10.692;2022-12-18T00:01:43;15.67;;;2.57;;
6651;SDS011;3362;50.892;10.692;2022-12-18T00:04:16;5.93;;;1.43;;
6651;SDS011;3362;50.892;10.692;2022-12-18T00:06:44;3.17;;;1.67;;
6651;SDS011;3362;50.892;10.692;2022-12-18T00:09:11;4.67;;;0.93;;
6651;SDS011;3362;50.892;10.692;2022-12-18T00:11:37;1.90;;;1.33;;
6651;SDS011;3362;50.892;10.692;2022-12-18T00:14:03;4.37;;;1.07;;
6651;SDS011;3362;50.892;10.692;2022-12-18T00:16:31;2.10;;;1.67;;
6651;SDS011;3362;50.892;10.692;2022-12-18T00:19:00;1.70;;;0.60;;
6651;SDS011;3362;50.892;10.692;2022-12-18T00:21:27;1.17;;;0.80;;
6651;SDS011;3362;50.892;10.692;2022-12-18T00:23:54;2.03;;;0.77;;
6651;SDS011;3362;50.892;10.692;2022-12-18T00:26:20;3.40;;;1.47;;
6651;SDS011;3362;50.892;10.692;2022-12-18T00:28:47;2.43;;;1.33;;
6651;SDS011;3362;50.892;10.692;2022-12-18T00:31:14;2.73;;;1.87;;
6651;SDS011;3362;50.892;10.692;2022-12-18T00:33:42;1.13;;;1.03;;
6651;SDS011;3362;50.892;10.692;2022-12-18T00:36:09;5.83;;;1.83;;
6651;SDS011;3362;50.892;10.692;2022-12-18T00:38:36;4.03;;;1.37;;
6651;SDS011;3362;50.892;10.692;2022-12-18T00:41:03;6.23;;;1.27;;
6651;SDS011;3362;50.892;10.692;2022-12-18T00:43:30;2.43;;;1.27;;
6651;SDS011;3362;50.892;10.692;2022-12-18T00:45:55;2.63;;;1.83;;
6651;SDS011;3362;50.892;10.692;2022-12-18T00:48:21;1.63;;;1.37;;
6651;SDS011;3362;50.892;10.692;2022-12-18T00:50:49;4.53;;;1.57;;
6651;SDS011;3362;50.892;10.692;2022-12-18T00:53:16;2.33;;;0.93;;
6651;SDS011;3362;50.892;10.692;2022-12-18T00:55:42;4.47;;;1.80;;
6651;SDS011;3362;50.892;10.692;2022-12-18T00:58:09;2.30;;;1.20;;
6651;SDS011;3362;50.892;10.692;2022-12-18T01:00:35;4.07;;;1.47;;
6651;SDS011;3362;50.892;10.692;2022-12-18T01:03:01;1.13;;;1.00;;
6651;SDS011;3362;50.892;10.692;2022-12-18T01:05:28;5.07;;;1.77;;
6651;SDS011;3362;50.892;10.692;2022-12-18T01:07:56;4.40;;;1.73;;
6651;SDS011;3362;50.892;10.692;2022-12-18T01:10:23;2.03;;;1.83;;
6651;SDS011;3362;50.892;10.692;2022-12-18T01:12:49;1.30;;;0.60;;
6651;SDS011;3362;50.892;10.692;2022-12-18T01:15:16;1.40;;;1.00;;
6651;SDS011;3362;50.892;10.692;2022-12-18T01:17:43;0.93;;;0.93;;
6651;SDS011;3362;50.892;10.692;2022-12-18T01:20:10;2.77;;;1.33;;
6651;SDS011;3362;50.892;10.692;2022-12-18T01:22:36;2.97;;;1.27;;
6651;SDS011;3362;50.892;10.692;2022-12-18T01:25:04;4.90;;;1.87;;
6651;SDS011;3362;50.892;10.692;2022-12-18T01:27:32;2.83;;;0.70;;
6651;SDS011;3362;50.892;10.692;2022-12-18T01:29:58;0.67;;;0.33;;
6651;SDS011;3362;50.892;10.692;2022-12-18T01:32:25;3.07;;;0.97;;
6651;SDS011;3362;50.892;10.692;2022-12-18T01:34:51;2.60;;;0.60;;
6651;SDS011;3362;50.892;10.692;2022-12-18T01:37:17;1.43;;;0.70;;
6651;SDS011;3362;50.892;10.692;2022-12-18T01:39:43;1.77;;;1.67;;
6651;SDS011;3362;50.892;10.692;2022-12-18T01:42:12;0.83;;;0.83;;
6651;SDS011;3362;50.892;10.692;2022-12-18T01:44:57;1.53;;;0.90;;
6651;SDS011;3362;50.892;10.692;2022-12-18T01:47:24;1.17;;;0.60;;
6651;SDS011;3362;50.892;10.692;2022-12-18T01:49:50;3.23;;;1.60;;
6651;SDS011;3362;50.892;10.692;2022-12-18T01:52:17;1.83;;;0.70;;
6651;SDS011;3362;50.892;10.692;2022-12-18T01:54:45;1.47;;;1.37;;
6651;SDS011;3362;50.892;10.692;2022-12-18T01:57:12;1.43;;;1.27;;
6651;SDS011;3362;50.892;10.692;2022-12-18T01:59:39;1.10;;;1.00;;
6651;SDS011;3362;50.892;10.692;2022-12-18T02:02:06;1.47;;;0.97;;
6651;SDS011;3362;50.892;10.692;2022-12-18T02:04:33;1.60;;;0.57;;
6651;SDS011;3362;50.892;10.692;2022-12-18T02:07:00;4.13;;;0.90;;
6651;SDS011;3362;50.892;10.692;2022-12-18T02:09:31;0.57;;;0.40;;
6651;SDS011;3362;50.892;10.692;2022-12-18T02:11:59;1.77;;;0.87;;
6651;SDS011;3362;50.892;10.692;2022-12-18T02:14:31;0.60;;;0.60;;
6651;SDS011;3362;50.892;10.692;2022-12-18T02:17:01;10.10;;;0.80;;
6651;SDS011;3362;50.892;10.692;2022-12-18T02:22:26;0.57;;;0.57;;
6651;SDS011;3362;50.892;10.692;2022-12-18T02:24:56;0.50;;;0.40;;
6651;SDS011;3362;50.892;10.692;2022-12-18T02:27:25;0.70;;;0.70;;
6651;SDS011;3362;50.892;10.692;2022-12-18T02:29:52;1.40;;;1.07;;
6651;SDS011;3362;50.892;10.692;2022-12-18T02:32:20;2.10;;;1.67;;
6651;SDS011;3362;50.892;10.692;2022-12-18T02:34:47;2.43;;;0.80;;
6651;SDS011;3362;50.892;10.692;2022-12-18T02:37:15;3.10;;;1.43;;
6651;SDS011;3362;50.892;10.692;2022-12-18T02:39:42;4.60;;;1.20;;
6651;SDS011;3362;50.892;10.692;2022-12-18T02:42:09;1.80;;;1.03;;
6651;SDS011;3362;50.892;10.692;2022-12-18T02:44:42;2.07;;;1.40;;
6651;SDS011;3362;50.892;10.692;2022-12-18T02:47:09;1.40;;;1.13;;
6651;SDS011;3362;50.892;10.692;2022-12-18T02:49:36;3.33;;;1.53;;
6651;SDS011;3362;50.892;10.692;2022-12-18T02:52:07;4.60;;;1.67;;
6651;SDS011;3362;50.892;10.692;2022-12-18T02:54:48;1.53;;;1.33;;
6651;SDS011;3362;50.892;10.692;2022-12-18T02:57:16;1.33;;;0.87;;
6651;SDS011;3362;50.892;10.692;2022-12-18T02:59:47;1.90;;;1.13;;
6651;SDS011;3362;50.892;10.692;2022-12-18T03:02:19;1.20;;;0.80;;
6651;SDS011;3362;50.892;10.692;2022-12-18T03:04:47;1.63;;;0.97;;
6651;SDS011;3362;50.892;10.692;2022-12-18T03:07:15;1.53;;;0.87;;
6651;SDS011;3362;50.892;10.692;2022-12-18T03:09:44;1.17;;;0.63;;
6651;SDS011;3362;50.892;10.692;2022-12-18T03:12:13;0.60;;;0.60;;
6651;SDS011;3362;50.892;10.692;2022-12-18T03:14:52;0.27;;;0.27;;
6651;SDS011;3362;50.892;10.692;2022-12-18T03:17:20;0.97;;;0.50;;
6651;SDS011;3362;50.892;10.692;2022-12-18T03:19:49;3.30;;;0.90;;
6651;SDS011;3362;50.892;10.692;2022-12-18T03:22:17;2.17;;;0.87;;
6651;SDS011;3362;50.892;10.692;2022-12-18T03:24:44;4.27;;;1.37;;
6651;SDS011;3362;50.892;10.692;2022-12-18T03:27:11;0.83;;;0.80;;
6651;SDS011;3362;50.892;10.692;2022-12-18T03:29:40;1.50;;;0.50;;
6651;SDS011;3362;50.892;10.692;2022-12-18T03:32:09;0.53;;;0.20;;
6651;SDS011;3362;50.892;10.692;2022-12-18T03:34:37;0.60;;;0.53;;
6651;SDS011;3362;50.892;10.692;2022-12-18T03:37:04;1.00;;;0.50;;
6651;SDS011;3362;50.892;10.692;2022-12-18T03:39:31;3.30;;;0.83;;
6651;SDS011;3362;50.892;10.692;2022-12-18T03:41:59;0.70;;;0.50;;
6651;SDS011;3362;50.892;10.692;2022-12-18T03:44:28;3.23;;;0.67;;
6651;SDS011;3362;50.892;10.692;2022-12-18T03:46:56;2.73;;;1.20;;
6651;SDS011;3362;50.892;10.692;2022-12-18T03:49:26;0.30;;;0.30;;
6651;SDS011;3362;50.892;10.692;2022-12-18T03:51:57;2.00;;;1.17;;
6651;SDS011;3362;50.892;10.692;2022-12-18T03:54:26;3.37;;;1.43;;
6651;SDS011;3362;50.892;10.692;2022-12-18T03:56:55;2.43;;;1.50;;
6651;SDS011;3362;50.892;10.692;2022-12-18T03:59:22;1.03;;;0.90;;
6651;SDS011;3362;50.892;10.692;2022-12-18T04:01:50;2.47;;;1.47;;
6651;SDS011;3362;50.892;10.692;2022-12-18T04:04:18;3.23;;;1.00;;
6651;SDS011;3362;50.892;10.692;2022-12-18T04:06:46;1.43;;;0.57;;
6651;SDS011;3362;50.892;10.692;2022-12-18T04:09:14;3.00;;;1.87;;
6651;SDS011;3362;50.892;10.692;2022-12-18T04:11:40;1.73;;;1.10;;
6651;SDS011;3362;50.892;10.692;2022-12-18T04:14:08;2.30;;;1.53;;
6651;SDS011;3362;50.892;10.692;2022-12-18T04:16:35;4.50;;;1.20;;
6651;SDS011;3362;50.892;10.692;2022-12-18T04:19:01;1.20;;;1.13;;
6651;SDS011;3362;50.892;10.692;2022-12-18T04:21:27;2.23;;;0.77;;
6651;SDS011;3362;50.892;10.692;2022-12-18T04:23:55;3.80;;;1.27;;
6651;SDS011;3362;50.892;10.692;2022-12-18T04:26:21;0.50;;;0.50;;
6651;SDS011;3362;50.892;10.692;2022-12-18T04:28:48;0.83;;;0.67;;
6651;SDS011;3362;50.892;10.692;2022-12-18T04:31:14;1.17;;;0.50;;
6651;SDS011;3362;50.892;10.692;2022-12-18T04:33:40;2.63;;;0.97;;
6651;SDS011;3362;50.892;10.692;2022-12-18T04:36:07;0.77;;;0.63;;
6651;SDS011;3362;50.892;10.692;2022-12-18T04:38:33;0.90;;;0.33;;
6651;SDS011;3362;50.892;10.692;2022-12-18T04:41:01;0.53;;;0.53;;
6651;SDS011;3362;50.892;10.692;2022-12-18T04:43:27;0.93;;;0.50;;
6651;SDS011;3362;50.892;10.692;2022-12-18T04:45:53;0.97;;;0.90;;
6651;SDS011;3362;50.892;10.692;2022-12-18T04:48:20;1.50;;;0.50;;
6651;SDS011;3362;50.892;10.692;2022-12-18T04:50:46;2.60;;;1.27;;
6651;SDS011;3362;50.892;10.692;2022-12-18T04:53:12;1.90;;;0.43;;
6651;SDS011;3362;50.892;10.692;2022-12-18T04:55:39;6.07;;;2.13;;
6651;SDS011;3362;50.892;10.692;2022-12-18T04:58:06;0.13;;;0.10;;
6651;SDS011;3362;50.892;10.692;2022-12-18T05:00:33;1.63;;;0.30;;
6651;SDS011;3362;50.892;10.692;2022-12-18T05:03:00;0.20;;;0.20;;
6651;SDS011;3362;50.892;10.692;2022-12-18T05:05:26;0.20;;;0.20;;
6651;SDS011;3362;50.892;10.692;2022-12-18T05:07:53;1.53;;;0.40;;
6651;SDS011;3362;50.892;10.692;2022-12-18T05:10:19;3.50;;;0.50;;
6651;SDS011;3362;50.892;10.692;2022-12-18T05:12:45;0.93;;;0.50;;
6651;SDS011;3362;50.892;10.692;2022-12-18T05:15:29;0.50;;;0.30;;
6651;SDS011;3362;50.892;10.692;2022-12-18T05:17:55;5.00;;;0.73;;
6651;SDS011;3362;50.892;10.692;2022-12-18T05:20:22;2.20;;;0.53;;
6651;SDS011;3362;50.892;10.692;2022-12-18T05:22:48;0.27;;;0.23;;
6651;SDS011;3362;50.892;10.692;2022-12-18T05:25:15;1.53;;;0.30;;
6651;SDS011;3362;50.892;10.692;2022-12-18T05:27:41;0.87;;;0.50;;
6651;SDS011;3362;50.892;10.692;2022-12-18T05:30:08;0.47;;;0.37;;
6651;SDS011;3362;50.892;10.692;2022-12-18T05:32:35;1.93;;;0.83;;
6651;SDS011;3362;50.892;10.692;2022-12-18T05:35:02;0.27;;;0.27;;
6651;SDS011;3362;50.892;10.692;2022-12-18T05:37:28;0.93;;;0.53;;
6651;SDS011;3362;50.892;10.692;2022-12-18T05:39:55;1.50;;;0.40;;
6651;SDS011;3362;50.892;10.692;2022-12-18T05:42:21;0.47;;;0.47;;
6651;SDS011;3362;50.892;10.692;2022-12-18T05:44:47;1.40;;;0.70;;
6651;SDS011;3362;50.892;10.692;2022-12-18T05:47:13;0.43;;;0.43;;
6651;SDS011;3362;50.892;10.692;2022-12-18T05:49:41;1.13;;;0.80;;
6651;SDS011;3362;50.892;10.692;2022-12-18T05:52:07;1.77;;;0.60;;
6651;SDS011;3362;50.892;10.692;2022-12-18T05:54:34;2.73;;;1.07;;
6651;SDS011;3362;50.892;10.692;2022-12-18T05:57:00;4.83;;;0.27;;
6651;SDS011;3362;50.892;10.692;2022-12-18T05:59:26;0.43;;;0.43;;
6651;SDS011;3362;50.892;10.692;2022-12-18T06:01:52;1.70;;;0.77;;
6651;SDS011;3362;50.892;10.692;2022-12-18T06:04:19;0.77;;;0.63;;
6651;SDS011;3362;50.892;10.692;2022-12-18T06:06:46;1.17;;;0.93;;
6651;SDS011;3362;50.892;10.692;2022-12-18T06:09:13;2.57;;;1.00;;
6651;SDS011;3362;50.892;10.692;2022-12-18T06:11:39;1.60;;;0.70;;
6651;SDS011;3362;50.892;10.692;2022-12-18T06:14:05;4.00;;;0.93;;
6651;SDS011;3362;50.892;10.692;2022-12-18T06:16:32;1.43;;;0.60;;
6651;SDS011;3362;50.892;10.692;2022-12-18T06:18:59;0.30;;;0.30;;
6651;SDS011;3362;50.892;10.692;2022-12-18T06:21:25;0.60;;;0.53;;
6651;SDS011;3362;50.892;10.692;2022-12-18T06:23:53;1.23;;;1.17;;
6651;SDS011;3362;50.892;10.692;2022-12-18T06:26:19;1.40;;;0.83;;
6651;SDS011;3362;50.892;10.692;2022-12-18T06:28:45;0.37;;;0.37;;
6651;SDS011;3362;50.892;10.692;2022-12-18T06:31:12;0.90;;;0.90;;
6651;SDS011;3362;50.892;10.692;2022-12-18T06:33:38;0.83;;;0.83;;
6651;SDS011;3362;50.892;10.692;2022-12-18T06:36:05;2.00;;;1.13;;
6651;SDS011;3362;50.892;10.692;2022-12-18T06:38:32;0.80;;;0.60;;
6651;SDS011;3362;50.892;10.692;2022-12-18T06:41:00;5.63;;;2.20;;
6651;SDS011;3362;50.892;10.692;2022-12-18T06:43:26;3.70;;;1.60;;
6651;SDS011;3362;50.892;10.692;2022-12-18T06:45:59;0.60;;;0.60;;
6651;SDS011;3362;50.892;10.692;2022-12-18T06:48:25;0.70;;;0.67;;
6651;SDS011;3362;50.892;10.692;2022-12-18T06:50:51;0.30;;;0.30;;
6651;SDS011;3362;50.892;10.692;2022-12-18T06:53:18;1.50;;;0.83;;
6651;SDS011;3362;50.892;10.692;2022-12-18T06:55:44;0.57;;;0.57;;
6651;SDS011;3362;50.892;10.692;2022-12-18T06:58:11;1.50;;;1.17;;
6651;SDS011;3362;50.892;10.692;2022-12-18T07:00:38;0.40;;;0.40;;
6651;SDS011;3362;50.892;10.692;2022-12-18T07:03:04;0.67;;;0.53;;
6651;SDS011;3362;50.892;10.692;2022-12-18T07:05:30;9.00;;;0.77;;
6651;SDS011;3362;50.892;10.692;2022-12-18T07:07:57;1.33;;;1.20;;
6651;SDS011;3362;50.892;10.692;2022-12-18T07:10:23;0.63;;;0.63;;
6651;SDS011;3362;50.892;10.692;2022-12-18T07:12:49;2.37;;;0.97;;
6651;SDS011;3362;50.892;10.692;2022-12-18T07:15:17;0.50;;;0.43;;
6651;SDS011;3362;50.892;10.692;2022-12-18T07:17:43;1.43;;;0.93;;
6651;SDS011;3362;50.892;10.692;2022-12-18T07:20:10;2.03;;;0.70;;
6651;SDS011;3362;50.892;10.692;2022-12-18T07:22:36;0.77;;;0.77;;
6651;SDS011;3362;50.892;10.692;2022-12-18T07:25:02;0.80;;;0.80;;
6651;SDS011;3362;50.892;10.692;2022-12-18T07:27:29;0.20;;;0.20;;
6651;SDS011;3362;50.892;10.692;2022-12-18T07:29:55;1.17;;;0.43;;
6651;SDS011;3362;50.892;10.692;2022-12-18T07:32:23;0.57;;;0.57;;
6651;SDS011;3362;50.892;10.692;2022-12-18T07:34:49;2.87;;;0.60;;
6651;SDS011;3362;50.892;10.692;2022-12-18T07:37:16;0.40;;;0.40;;
6651;SDS011;3362;50.892;10.692;2022-12-18T07:39:42;0.73;;;0.73;;
6651;SDS011;3362;50.892;10.692;2022-12-18T07:42:08;4.20;;;1.10;;
6651;SDS011;3362;50.892;10.692;2022-12-18T07:44:52;2.20;;;0.73;;
6651;SDS011;3362;50.892;10.692;2022-12-18T07:47:18;0.80;;;0.50;;
6651;SDS011;3362;50.892;10.692;2022-12-18T07:49:46;2.93;;;1.17;;
6651;SDS011;3362;50.892;10.692;2022-12-18T07:52:12;0.40;;;0.37;;
6651;SDS011;3362;50.892;10.692;2022-12-18T07:54:38;1.83;;;0.60;;
6651;SDS011;3362;50.892;10.692;2022-12-18T07:57:05;1.33;;;0.70;;
6651;SDS011;3362;50.892;10.692;2022-12-18T07:59:31;7.07;;;1.63;;
6651;SDS011;3362;50.892;10.692;2022-12-18T08:01:58;0.30;;;0.30;;
6651;SDS011;3362;50.892;10.692;2022-12-18T08:04:24;1.23;;;0.60;;
6651;SDS011;3362;50.892;10.692;2022-12-18T08:06:52;1.90;;;0.77;;
6651;SDS011;3362;50.892;10.692;2022-12-18T08:09:18;1.17;;;0.53;;
6651;SDS011;3362;50.892;10.692;2022-12-18T08:11:44;0.20;;;0.20;;
6651;SDS011;3362;50.892;10.692;2022-12-18T08:14:10;0.60;;;0.60;;
6651;SDS011;3362;50.892;10.692;2022-12-18T08:16:37;0.10;;;0.10;;
6651;SDS011;3362;50.892;10.692;2022-12-18T08:19:03;1.33;;;0.57;;
6651;SDS011;3362;50.892;10.692;2022-12-18T08:21:30;0.40;;;0.33;;
6651;SDS011;3362;50.892;10.692;2022-12-18T08:23:58;0.70;;;0.50;;
6651;SDS011;3362;50.892;10.692;2022-12-18T08:26:27;0.60;;;0.50;;
6651;SDS011;3362;50.892;10.692;2022-12-18T08:28:53;0.73;;;0.53;;
6651;SDS011;3362;50.892;10.692;2022-12-18T08:31:20;1.00;;;1.00;;
6651;SDS011;3362;50.892;10.692;2022-12-18T08:33:47;0.60;;;0.60;;
6651;SDS011;3362;50.892;10.692;2022-12-18T08:36:14;1.97;;;1.63;;
6651;SDS011;3362;50.892;10.692;2022-12-18T08:38:40;1.43;;;1.30;;
6651;SDS011;3362;50.892;10.692;2022-12-18T08:41:08;5.20;;;1.90;;
6651;SDS011;3362;50.892;10.692;2022-12-18T08:43:35;3.30;;;1.73;;
6651;SDS011;3362;50.892;10.692;2022-12-18T08:46:19;3.47;;;1.53;;
6651;SDS011;3362;50.892;10.692;2022-12-18T08:48:45;3.40;;;1.90;;
6651;SDS011;3362;50.892;10.692;2022-12-18T08:51:11;3.00;;;1.70;;
6651;SDS011;3362;50.892;10.692;2022-12-18T08:53:38;6.47;;;2.03;;
6651;SDS011;3362;50.892;10.692;2022-12-18T08:56:05;1.43;;;1.07;;
6651;SDS011;3362;50.892;10.692;2022-12-18T08:58:32;0.77;;;0.77;;
6651;SDS011;3362;50.892;10.692;2022-12-18T09:00:59;2.73;;;1.03;;
6651;SDS011;3362;50.892;10.692;2022-12-18T09:03:25;2.80;;;1.30;;
6651;SDS011;3362;50.892;10.692;2022-12-18T09:05:52;0.93;;;0.83;;
6651;SDS011;3362;50.892;10.692;2022-12-18T09:08:18;1.03;;;0.93;;
6651;SDS011;3362;50.892;10.692;2022-12-18T09:10:44;3.80;;;2.07;;
6651;SDS011;3362;50.892;10.692;2022-12-18T09:13:11;4.63;;;1.27;;
6651;SDS011;3362;50.892;10.692;2022-12-18T09:15:41;4.83;;;2.53;;
6651;SDS011;3362;50.892;10.692;2022-12-18T09:18:08;3.33;;;1.47;;
6651;SDS011;3362;50.892;10.692;2022-12-18T09:20:34;3.33;;;2.03;;
6651;SDS011;3362;50.892;10.692;2022-12-18T09:23:00;6.63;;;2.93;;
6651;SDS011;3362;50.892;10.692;2022-12-18T09:25:28;6.37;;;3.17;;
6651;SDS011;3362;50.892;10.692;2022-12-18T09:27:57;4.53;;;3.53;;
6651;SDS011;3362;50.892;10.692;2022-12-18T09:30:24;6.87;;;3.73;;
6651;SDS011;3362;50.892;10.692;2022-12-18T09:32:51;5.83;;;4.90;;
6651;SDS011;3362;50.892;10.692;2022-12-18T09:35:18;12.47;;;4.57;;
6651;SDS011;3362;50.892;10.692;2022-12-18T09:37:44;10.80;;;4.67;;
6651;SDS011;3362;50.892;10.692;2022-12-18T09:40:12;9.17;;;4.10;;
6651;SDS011;3362;50.892;10.692;2022-12-18T09:42:39;5.43;;;3.63;;
6651;SDS011;3362;50.892;10.692;2022-12-18T09:45:07;5.90;;;2.20;;
6651;SDS011;3362;50.892;10.692;2022-12-18T09:47:37;4.07;;;2.03;;
6651;SDS011;3362;50.892;10.692;2022-12-18T09:50:06;3.53;;;2.40;;
6651;SDS011;3362;50.892;10.692;2022-12-18T09:52:42;3.37;;;2.90;;
6651;SDS011;3362;50.892;10.692;2022-12-18T09:55:11;3.57;;;2.43;;
6651;SDS011;3362;50.892;10.692;2022-12-18T09:57:40;3.33;;;1.93;;
6651;SDS011;3362;50.892;10.692;2022-12-18T10:00:11;5.77;;;2.23;;
6651;SDS011;3362;50.892;10.692;2022-12-18T10:02:41;8.10;;;3.07;;
6651;SDS011;3362;50.892;10.692;2022-12-18T10:05:10;6.70;;;2.83;;
6651;SDS011;3362;50.892;10.692;2022-12-18T10:07:43;9.00;;;3.50;;
6651;SDS011;3362;50.892;10.692;2022-12-18T10:10:14;8.20;;;3.33;;
6651;SDS011;3362;50.892;10.692;2022-12-18T10:12:46;6.07;;;3.00;;
6651;SDS011;3362;50.892;10.692;2022-12-18T10:15:15;7.47;;;4.57;;
6651;SDS011;3362;50.892;10.692;2022-12-18T10:17:47;6.13;;;3.43;;
6651;SDS011;3362;50.892;10.692;2022-12-18T10:20:17;9.00;;;3.80;;
6651;SDS011;3362;50.892;10.692;2022-12-18T10:22:49;8.87;;;3.87;;
6651;SDS011;3362;50.892;10.692;2022-12-18T10:25:19;12.30;;;3.13;;
6651;SDS011;3362;50.892;10.692;2022-12-18T10:27:46;12.97;;;3.53;;
6651;SDS011;3362;50.892;10.692;2022-12-18T10:30:13;4.53;;;2.70;;
6651;SDS011;3362;50.892;10.692;2022-12-18T10:32:40;5.83;;;3.37;;
6651;SDS011;3362;50.892;10.692;2022-12-18T10:35:07;5.97;;;3.77;;
6651;SDS011;3362;50.892;10.692;2022-12-18T10:37:39;5.80;;;3.33;;
6651;SDS011;3362;50.892;10.692;2022-12-18T10:40:24;8.27;;;4.33;;
6651;SDS011;3362;50.892;10.692;2022-12-18T10:42:59;11.47;;;5.27;;
6651;SDS011;3362;50.892;10.692;2022-12-18T10:45:28;10.30;;;4.20;;
6651;SDS011;3362;50.892;10.692;2022-12-18T10:47:55;9.23;;;4.67;;
6651;SDS011;3362;50.892;10.692;2022-12-18T10:50:23;9.43;;;4.40;;
6651;SDS011;3362;50.892;10.692;2022-12-18T10:52:56;8.83;;;4.30;;
6651;SDS011;3362;50.892;10.692;2022-12-18T10:55:23;5.43;;;3.67;;
6651;SDS011;3362;50.892;10.692;2022-12-18T10:57:50;4.90;;;3.23;;
6651;SDS011;3362;50.892;10.692;2022-12-18T11:00:21;6.73;;;3.43;;
6651;SDS011;3362;50.892;10.692;2022-12-18T11:02:48;4.93;;;3.17;;
6651;SDS011;3362;50.892;10.692;2022-12-18T11:05:25;6.87;;;3.67;;
6651;SDS011;3362;50.892;10.692;2022-12-18T11:07:51;7.20;;;4.87;;
6651;SDS011;3362;50.892;10.692;2022-12-18T11:10:20;13.20;;;6.43;;
6651;SDS011;3362;50.892;10.692;2022-12-18T11:12:47;7.90;;;4.57;;
6651;SDS011;3362;50.892;10.692;2022-12-18T11:15:15;8.80;;;5.53;;
6651;SDS011;3362;50.892;10.692;2022-12-18T11:17:42;9.83;;;5.10;;
6651;SDS011;3362;50.892;10.692;2022-12-18T11:20:19;8.63;;;4.73;;
6651;SDS011;3362;50.892;10.692;2022-12-18T11:22:53;10.17;;;4.87;;
6651;SDS011;3362;50.892;10.692;2022-12-18T11:25:22;13.37;;;5.03;;
6651;SDS011;3362;50.892;10.692;2022-12-18T11:27:49;9.40;;;5.27;;
6651;SDS011;3362;50.892;10.692;2022-12-18T11:32:44;8.53;;;4.47;;
6651;SDS011;3362;50.892;10.692;2022-12-18T11:35:14;11.37;;;4.60;;
6651;SDS011;3362;50.892;10.692;2022-12-18T11:37:41;9.53;;;4.83;;
6651;SDS011;3362;50.892;10.692;2022-12-18T11:40:10;5.33;;;3.27;;
6651;SDS011;3362;50.892;10.692;2022-12-18T11:42:41;11.80;;;4.53;;
6651;SDS011;3362;50.892;10.692;2022-12-18T11:45:21;11.40;;;4.97;;
6651;SDS011;3362;50.892;10.692;2022-12-18T11:47:51;12.57;;;5.20;;
6651;SDS011;3362;50.892;10.692;2022-12-18T11:50:19;9.20;;;5.40;;
6651;SDS011;3362;50.892;10.692;2022-12-18T11:52:47;13.73;;;5.27;;
6651;SDS011;3362;50.892;10.692;2022-12-18T11:55:14;12.97;;;5.27;;
6651;SDS011;3362;50.892;10.692;2022-12-18T11:57:44;6.47;;;3.90;;
6651;SDS011;3362;50.892;10.692;2022-12-18T12:00:16;11.23;;;4.43;;
6651;SDS011;3362;50.892;10.692;2022-12-18T12:02:47;5.90;;;2.90;;
6651;SDS011;3362;50.892;10.692;2022-12-18T12:05:21;10.77;;;3.90;;
6651;SDS011;3362;50.892;10.692;2022-12-18T12:07:52;7.63;;;3.07;;
6651;SDS011;3362;50.892;10.692;2022-12-18T12:10:24;10.53;;;4.23;;
6651;SDS011;3362;50.892;10.692;2022-12-18T12:12:58;10.07;;;3.30;;
6651;SDS011;3362;50.892;10.692;2022-12-18T12:15:29;13.43;;;4.10;;
6651;SDS011;3362;50.892;10.692;2022-12-18T12:17:59;10.13;;;3.73;;
6651;SDS011;3362;50.892;10.692;2022-12-18T12:20:30;8.17;;;3.73;;
6651;SDS011;3362;50.892;10.692;2022-12-18T12:23:01;4.03;;;3.37;;
6651;SDS011;3362;50.892;10.692;2022-12-18T12:25:31;7.77;;;4.30;;
6651;SDS011;3362;50.892;10.692;2022-12-18T12:28:04;9.63;;;4.27;;
6651;SDS011;3362;50.892;10.692;2022-12-18T12:30:35;10.93;;;4.07;;
6651;SDS011;3362;50.892;10.692;2022-12-18T12:33:10;7.50;;;3.97;;
6651;SDS011;3362;50.892;10.692;2022-12-18T12:35:44;14.77;;;3.90;;
6651;SDS011;3362;50.892;10.692;2022-12-18T12:38:13;9.63;;;4.00;;
6651;SDS011;3362;50.892;10.692;2022-12-18T12:40:43;7.47;;;3.67;;
6651;SDS011;3362;50.892;10.692;2022-12-18T12:43:15;9.13;;;4.13;;
6651;SDS011;3362;50.892;10.692;2022-12-18T12:45:46;12.20;;;4.40;;
6651;SDS011;3362;50.892;10.692;2022-12-18T12:48:17;15.07;;;4.90;;
6651;SDS011;3362;50.892;10.692;2022-12-18T12:50:45;6.87;;;4.20;;
6651;SDS011;3362;50.892;10.692;2022-12-18T12:53:14;10.97;;;4.77;;
6651;SDS011;3362;50.892;10.692;2022-12-18T12:55:42;16.40;;;4.83;;
6651;SDS011;3362;50.892;10.692;2022-12-18T12:58:11;8.30;;;4.00;;
6651;SDS011;3362;50.892;10.692;2022-12-18T13:00:44;15.83;;;4.83;;
6651;SDS011;3362;50.892;10.692;2022-12-18T13:03:14;12.30;;;5.00;;
6651;SDS011;3362;50.892;10.692;2022-12-18T13:05:43;10.30;;;5.00;;
6651;SDS011;3362;50.892;10.692;2022-12-18T13:08:22;13.77;;;4.93;;
6651;SDS011;3362;50.892;10.692;2022-12-18T13:10:48;14.40;;;5.70;;
6651;SDS011;3362;50.892;10.692;2022-12-18T13:13:37;13.97;;;5.90;;
6651;SDS011;3362;50.892;10.692;2022-12-18T13:16:14;13.50;;;6.10;;
6651;SDS011;3362;50.892;10.692;2022-12-18T13:18:47;15.77;;;7.10;;
6651;SDS011;3362;50.892;10.692;2022-12-18T13:21:16;12.80;;;6.10;;
6651;SDS011;3362;50.892;10.692;2022-12-18T13:23:46;15.10;;;6.13;;
6651;SDS011;3362;50.892;10.692;2022-12-18T13:26:28;12.93;;;6.67;;
6651;SDS011;3362;50.892;10.692;2022-12-18T13:28:55;14.70;;;6.27;;
6651;SDS011;3362;50.892;10.692;2022-12-18T13:34:14;11.17;;;5.87;;
6651;SDS011;3362;50.892;10.692;2022-12-18T13:36:41;15.57;;;6.13;;
6651;SDS011;3362;50.892;10.692;2022-12-18T13:39:15;10.27;;;5.40;;
6651;SDS011;3362;50.892;10.692;2022-12-18T13:41:47;8.43;;;5.70;;
6651;SDS011;3362;50.892;10.692;2022-12-18T13:44:22;22.00;;;7.33;;
6651;SDS011;3362;50.892;10.692;2022-12-18T13:46:50;14.00;;;6.33;;
6651;SDS011;3362;50.892;10.692;2022-12-18T13:49:20;18.47;;;6.90;;
6651;SDS011;3362;50.892;10.692;2022-12-18T13:51:48;14.23;;;6.77;;
6651;SDS011;3362;50.892;10.692;2022-12-18T13:54:17;15.80;;;7.37;;
6651;SDS011;3362;50.892;10.692;2022-12-18T13:56:45;12.90;;;6.57;;
6651;SDS011;3362;50.892;10.692;2022-12-18T13:59:15;16.23;;;6.60;;
6651;SDS011;3362;50.892;10.692;2022-12-18T14:01:43;12.17;;;6.60;;
6651;SDS011;3362;50.892;10.692;2022-12-18T14:04:10;14.50;;;6.03;;
6651;SDS011;3362;50.892;10.692;2022-12-18T14:06:38;15.70;;;6.77;;
6651;SDS011;3362;50.892;10.692;2022-12-18T14:09:05;12.57;;;6.30;;
6651;SDS011;3362;50.892;10.692;2022-12-18T14:11:31;16.50;;;6.50;;
6651;SDS011;3362;50.892;10.692;2022-12-18T14:13:58;14.10;;;7.13;;
6651;SDS011;3362;50.892;10.692;2022-12-18T14:16:24;10.60;;;5.67;;
6651;SDS011;3362;50.892;10.692;2022-12-18T14:18:52;13.77;;;6.80;;
6651;SDS011;3362;50.892;10.692;2022-12-18T14:21:21;16.13;;;8.43;;
6651;SDS011;3362;50.892;10.692;2022-12-18T14:23:49;25.83;;;8.53;;
6651;SDS011;3362;50.892;10.692;2022-12-18T14:26:29;12.87;;;7.20;;
6651;SDS011;3362;50.892;10.692;2022-12-18T14:28:56;9.93;;;6.53;;
6651;SDS011;3362;50.892;10.692;2022-12-18T14:31:24;11.43;;;6.47;;
6651;SDS011;3362;50.892;10.692;2022-12-18T14:33:50;17.03;;;8.03;;
6651;SDS011;3362;50.892;10.692;2022-12-18T14:36:18;16.50;;;9.90;;
6651;SDS011;3362;50.892;10.692;2022-12-18T14:38:49;13.20;;;7.53;;
6651;SDS011;3362;50.892;10.692;2022-12-18T14:41:16;14.43;;;7.47;;
6651;SDS011;3362;50.892;10.692;2022-12-18T14:43:44;14.43;;;8.23;;
6651;SDS011;3362;50.892;10.692;2022-12-18T14:46:25;18.70;;;8.47;;
6651;SDS011;3362;50.892;10.692;2022-12-18T14:48:51;12.17;;;6.67;;
6651;SDS011;3362;50.892;10.692;2022-12-18T14:51:19;12.60;;;7.80;;
6651;SDS011;3362;50.892;10.692;2022-12-18T14:53:46;11.43;;;6.90;;
6651;SDS011;3362;50.892;10.692;2022-12-18T14:56:15;17.33;;;8.10;;
6651;SDS011;3362;50.892;10.692;2022-12-18T14:58:46;13.27;;;7.60;;
6651;SDS011;3362;50.892;10.692;2022-12-18T15:01:18;14.07;;;7.87;;
6651;SDS011;3362;50.892;10.692;2022-12-18T15:03:44;13.40;;;6.90;;
6651;SDS011;3362;50.892;10.692;2022-12-18T15:06:17;29.97;;;8.67;;
6651;SDS011;3362;50.892;10.692;2022-12-18T15:08:43;16.83;;;7.93;;
6651;SDS011;3362;50.892;10.692;2022-12-18T15:16:50;21.07;;;10.37;;
6651;SDS011;3362;50.892;10.692;2022-12-18T15:19:17;18.37;;;8.70;;